Time;durP1;ratioP1;P1;durP2;ratioP2;P2;SDS_P1;SDS_P2;PMS_P1;PMS_P2;Temp;Humidity;BMP_temperature;BMP_pressure;BME280_temperature;BME280_humidity;BME280_pressure;Samples;Min_cycle;Max_cycle;Signal;HPM_P1;HPM_P2
2021/04/09 00:02:03;;;;;;;15.32;6.28;;;;;;;0.95;65.54;101152.20;1756369;81;21180;-76
2021/04/09 00:04:29;;;;;;;14.15;5.50;;;;;;;0.94;65.59;101150.51;1756411;81;21132;-77
2021/04/09 00:06:55;;;;;;;9.18;4.95;;;;;;;0.93;65.65;101150.97;1756532;81;21125;-76
2021/04/09 00:09:21;;;;;;;11.50;6.78;;;;;;;0.93;65.71;101150.12;1757017;80;21174;-76
2021/04/09 00:11:48;;;;;;;17.75;7.37;;;;;;;0.92;65.80;101152.36;1764373;80;22253;-76
2021/04/09 00:14:15;;;;;;;15.68;7.30;;;;;;;0.93;65.83;101156.69;1773006;80;21152;-77
2021/04/09 00:16:41;;;;;;;21.62;8.18;;;;;;;0.90;65.93;101152.47;1773621;78;21179;-76
2021/04/09 00:19:13;;;;;;;14.73;7.25;;;;;;;0.89;65.97;101153.86;1769323;78;21141;-77
2021/04/09 00:21:41;;;;;;;14.33;6.08;;;;;;;0.87;66.01;101151.80;1770450;80;21162;-76
2021/04/09 00:24:08;;;;;;;15.40;6.03;;;;;;;0.84;66.06;101155.92;1725343;83;22204;-76
2021/04/09 00:26:34;;;;;;;15.13;6.40;;;;;;;0.78;66.09;101150.55;1756562;81;21143;-75
2021/04/09 00:29:01;;;;;;;9.23;5.30;;;;;;;0.75;66.14;101151.19;1765443;79;21171;-76
2021/04/09 00:31:31;;;;;;;17.02;8.60;;;;;;;0.70;66.18;101151.94;1755255;81;21187;-76
2021/04/09 00:33:57;;;;;;;32.33;10.75;;;;;;;0.64;66.22;101141.77;1770567;80;21149;-76
2021/04/09 00:36:23;;;;;;;16.25;6.83;;;;;;;0.60;66.25;101138.48;1726003;81;21610;-76
2021/04/09 00:38:50;;;;;;;12.82;6.35;;;;;;;0.60;66.29;101142.91;1764917;80;21163;-76
2021/04/09 00:41:17;;;;;;;13.15;6.00;;;;;;;0.60;66.32;101142.91;1787503;80;21573;-76
2021/04/09 00:43:44;;;;;;;14.73;6.97;;;;;;;0.58;66.34;101136.89;1787746;80;21176;-76
2021/04/09 00:46:10;;;;;;;15.85;7.30;;;;;;;0.57;66.38;101140.44;1787569;80;21143;-76
2021/04/09 00:48:36;;;;;;;15.53;7.00;;;;;;;0.55;66.44;101133.13;1787547;80;22036;-76
2021/04/09 00:51:04;;;;;;;12.78;5.70;;;;;;;0.56;66.48;101132.20;1787432;80;21248;-76
2021/04/09 00:53:30;;;;;;;12.68;5.95;;;;;;;0.59;66.51;101126.78;1787508;80;21127;-76
2021/04/09 00:55:57;;;;;;;10.38;5.67;;;;;;;0.64;66.56;101128.66;1787390;80;21153;-76
2021/04/09 00:58:23;;;;;;;11.55;5.22;;;;;;;0.72;66.61;101121.19;1786823;80;21159;-74
2021/04/09 01:00:49;;;;;;;13.88;6.58;;;;;;;0.80;66.65;101125.53;1787476;80;21159;-74
2021/04/09 01:03:16;;;;;;;13.18;5.12;;;;;;;0.87;66.73;101120.30;1756168;80;21151;-74
2021/04/09 01:05:43;;;;;;;15.00;6.78;;;;;;;0.95;66.78;101128.58;1756673;80;21179;-74
2021/04/09 01:08:09;;;;;;;15.05;6.85;;;;;;;0.98;66.82;101121.36;1785903;80;21163;-74
2021/04/09 01:10:35;;;;;;;24.77;11.25;;;;;;;1.04;66.87;101120.13;1787342;80;21144;-74
2021/04/09 01:13:02;;;;;;;16.52;6.55;;;;;;;1.12;66.91;101115.74;1787346;80;21274;-74
2021/04/09 01:15:28;;;;;;;17.98;6.90;;;;;;;1.18;66.93;101121.93;1787175;80;21143;-74
2021/04/09 01:18:25;;;;;;;12.98;6.62;;;;;;;1.22;66.92;101110.30;1787386;80;21188;-74
2021/04/09 01:21:06;;;;;;;15.65;7.03;;;;;;;1.26;66.96;101116.60;1778660;80;21597;-74
2021/04/09 01:24:16;;;;;;;13.55;6.30;;;;;;;1.29;66.96;101113.78;1786857;80;21182;-75
2021/04/09 01:26:57;;;;;;;15.72;6.40;;;;;;;1.32;66.98;101110.11;1701549;83;21604;-75
2021/04/09 01:29:52;;;;;;;22.80;10.10;;;;;;;1.34;66.98;101107.77;1691034;84;21227;-74
2021/04/09 01:32:18;;;;;;;19.30;7.87;;;;;;;1.36;66.99;101108.53;1736442;80;21143;-77
2021/04/09 01:34:48;;;;;;;14.75;7.35;;;;;;;1.38;66.97;101105.33;1760350;80;21137;-74
2021/04/09 01:37:22;;;;;;;17.07;7.62;;;;;;;1.38;66.97;101110.58;1756204;81;21099;-75
2021/04/09 01:39:58;;;;;;;14.40;7.22;;;;;;;1.39;66.98;101108.34;1756130;81;22023;-75
2021/04/09 01:42:25;;;;;;;21.93;8.88;;;;;;;1.41;66.97;101110.39;1756079;81;21162;-75
2021/04/09 01:44:53;;;;;;;24.52;8.58;;;;;;;1.42;66.98;101097.63;1756272;81;21543;-75
2021/04/09 01:47:23;;;;;;;26.35;10.00;;;;;;;1.44;66.96;101094.92;1756124;81;21593;-75
2021/04/09 01:49:57;;;;;;;32.58;10.95;;;;;;;1.44;66.95;101085.23;1726610;81;21559;-75
2021/04/09 01:52:25;;;;;;;27.73;10.72;;;;;;;1.44;66.96;101085.73;1756204;81;21293;-75
2021/04/09 01:54:52;;;;;;;21.33;10.30;;;;;;;1.42;66.98;101084.50;1756705;81;21138;-75
2021/04/09 01:57:20;;;;;;;22.27;9.28;;;;;;;1.38;66.97;101079.05;1756726;81;21167;-75
2021/04/09 01:59:48;;;;;;;20.72;10.13;;;;;;;1.35;66.96;101076.62;1757222;80;21201;-75
2021/04/09 02:02:16;;;;;;;19.35;10.15;;;;;;;1.30;66.98;101082.61;1756578;81;21211;-75
2021/04/09 02:04:44;;;;;;;19.57;9.75;;;;;;;1.22;66.98;101079.63;1756118;81;22306;-75
2021/04/09 02:07:11;;;;;;;16.70;9.98;;;;;;;1.14;67.01;101076.62;1756657;81;21201;-75
2021/04/09 02:09:37;;;;;;;15.85;8.68;;;;;;;1.06;67.04;101078.86;1756659;81;21137;-75
2021/04/09 02:12:04;;;;;;;19.27;9.30;;;;;;;1.00;67.07;101071.36;1756471;80;21729;-75
2021/04/09 02:14:31;;;;;;;20.82;9.63;;;;;;;0.95;67.10;101064.24;1755157;81;21160;-74
2021/04/09 02:16:57;;;;;;;20.70;10.60;;;;;;;0.89;67.16;101067.22;1777206;80;21264;-74
2021/04/09 02:19:24;;;;;;;18.90;8.85;;;;;;;0.81;67.19;101067.67;1787728;80;21226;-74
2021/04/09 02:21:50;;;;;;;38.48;15.45;;;;;;;0.75;67.24;101061.94;1787813;80;21132;-74
2021/04/09 02:24:17;;;;;;;47.45;16.48;;;;;;;0.68;67.28;101063.24;1787856;80;21560;-75
2021/04/09 02:26:44;;;;;;;45.15;15.60;;;;;;;0.62;67.34;101057.05;1785208;80;21164;-75
2021/04/09 02:29:11;;;;;;;34.10;12.78;;;;;;;0.57;67.37;101045.97;1787767;80;21183;-75
2021/04/09 02:31:37;;;;;;;22.25;10.95;;;;;;;0.50;67.45;101053.36;1787820;80;21115;-75
2021/04/09 02:34:04;;;;;;;22.58;10.35;;;;;;;0.42;67.47;101052.49;1787821;80;21151;-75
2021/04/09 02:36:30;;;;;;;21.30;9.63;;;;;;;0.35;67.54;101049.03;1787880;80;21148;-75
2021/04/09 02:39:09;;;;;;;20.77;10.43;;;;;;;0.30;67.59;101047.13;1787861;80;21109;-74
2021/04/09 02:41:37;;;;;;;23.67;9.83;;;;;;;0.25;67.64;101049.16;1787744;80;21255;-74
2021/04/09 02:44:03;;;;;;;22.25;10.18;;;;;;;0.17;67.67;101048.31;1787806;80;21139;-75
2021/04/09 02:46:56;;;;;;;20.60;9.95;;;;;;;0.13;67.72;101052.04;1787580;80;21184;-75
2021/04/09 02:49:45;;;;;;;19.55;10.35;;;;;;;0.08;67.76;101048.82;1772302;80;21165;-74
2021/04/09 02:52:26;;;;;;;23.00;9.53;;;;;;;0.02;67.81;101043.94;1787663;80;21163;-75
2021/04/09 02:54:53;;;;;;;18.20;8.85;;;;;;;-0.02;67.85;101039.80;1775808;80;21311;-76
2021/04/09 02:57:22;;;;;;;25.97;11.63;;;;;;;-0.05;67.88;101038.20;1726374;81;21146;-75
2021/04/09 02:59:51;;;;;;;16.43;9.43;;;;;;;-0.09;67.92;101034.05;1756105;81;21162;-74
2021/04/09 03:02:17;;;;;;;23.62;11.68;;;;;;;-0.11;67.98;101035.09;1755467;81;21568;-74
2021/04/09 03:04:44;;;;;;;13.93;8.40;;;;;;;-0.13;68.01;101035.62;1756316;80;21188;-75
2021/04/09 03:07:11;;;;;;;23.60;9.40;;;;;;;-0.16;68.03;101029.24;1726393;81;21659;-74
2021/04/09 03:09:38;;;;;;;21.12;10.48;;;;;;;-0.19;68.09;101025.03;1756096;81;21135;-75
2021/04/09 03:12:14;;;;;;;17.05;10.00;;;;;;;-0.22;68.13;101026.98;1755942;81;21147;-74
2021/04/09 03:14:41;;;;;;;22.17;10.48;;;;;;;-0.25;68.16;101024.07;1754938;81;21522;-74
2021/04/09 03:17:12;;;;;;;25.17;10.80;;;;;;;-0.28;68.21;101015.05;1761362;80;21128;-74
2021/04/09 03:19:39;;;;;;;30.32;12.95;;;;;;;-0.27;68.21;101013.27;1787077;80;22073;-75
2021/04/09 03:22:09;;;;;;;27.35;11.20;;;;;;;-0.25;68.27;101011.43;1787238;80;21167;-75
2021/04/09 03:24:36;;;;;;;33.42;15.30;;;;;;;-0.24;68.28;101009.16;1787326;80;21180;-74
2021/04/09 03:27:08;;;;;;;20.60;9.88;;;;;;;-0.27;68.32;101000.17;1733441;81;21175;-74
2021/04/09 03:29:34;;;;;;;25.10;11.35;;;;;;;-0.29;68.33;101004.67;1720824;83;21240;-75
2021/04/09 03:32:02;;;;;;;25.25;11.90;;;;;;;-0.31;68.38;101001.27;1721043;83;21200;-75
2021/04/09 03:34:28;;;;;;;54.90;16.87;;;;;;;-0.33;68.43;100998.75;1720903;83;21199;-75
2021/04/09 03:36:55;;;;;;;34.60;13.55;;;;;;;-0.34;68.44;100993.58;1721058;83;21156;-75
2021/04/09 03:39:21;;;;;;;33.40;13.38;;;;;;;-0.35;68.46;100988.80;1720918;83;21148;-75
2021/04/09 03:41:47;;;;;;;41.23;13.05;;;;;;;-0.37;68.50;100980.20;1721068;83;21549;-75
2021/04/09 03:44:13;;;;;;;50.08;16.02;;;;;;;-0.38;68.55;100987.67;1720944;83;22117;-75
2021/04/09 03:46:40;;;;;;;30.37;14.25;;;;;;;-0.39;68.56;100985.16;1746978;81;21160;-74
2021/04/09 03:49:06;;;;;;;22.07;10.72;;;;;;;-0.41;68.58;100980.45;1752622;81;21195;-75
2021/04/09 03:51:32;;;;;;;37.05;13.22;;;;;;;-0.40;68.60;100975.59;1733699;81;21133;-74
2021/04/09 03:53:58;;;;;;;46.28;15.05;;;;;;;-0.38;68.62;100981.58;1724105;81;21683;-74
2021/04/09 03:56:25;;;;;;;54.20;17.20;;;;;;;-0.41;68.63;100970.82;1769748;81;22128;-75
2021/04/09 03:58:51;;;;;;;26.17;12.25;;;;;;;-0.42;68.66;100970.92;1769457;81;21198;-75
2021/04/09 04:01:17;;;;;;;34.38;12.90;;;;;;;-0.43;68.69;100966.14;1769691;81;21138;-75
2021/04/09 04:03:48;;;;;;;28.02;10.03;;;;;;;-0.46;68.71;100965.02;1769776;81;21131;-75
2021/04/09 04:06:15;;;;;;;27.87;9.63;;;;;;;-0.45;68.74;100961.90;1769864;81;21664;-75
2021/04/09 04:08:42;;;;;;;17.42;8.75;;;;;;;-0.45;68.79;100956.66;1769741;81;21262;-75
2021/04/09 04:11:08;;;;;;;26.10;10.48;;;;;;;-0.44;68.79;100955.73;1769683;81;21203;-75
2021/04/09 04:13:34;;;;;;;28.65;10.28;;;;;;;-0.41;68.81;100955.56;1779090;80;21155;-75
2021/04/09 04:16:02;;;;;;;21.17;8.35;;;;;;;-0.41;68.84;100956.88;1760394;81;21155;-75
2021/04/09 04:18:29;;;;;;;26.87;10.30;;;;;;;-0.39;68.86;100954.56;1760556;81;21131;-75
2021/04/09 04:20:56;;;;;;;18.82;10.32;;;;;;;-0.34;68.89;100956.91;1781046;80;21564;-74
2021/04/09 04:23:22;;;;;;;21.87;8.78;;;;;;;-0.32;68.92;100953.29;1791869;80;21175;-74
2021/04/09 04:25:48;;;;;;;23.30;8.90;;;;;;;-0.30;68.91;100947.94;1791614;80;21139;-75
2021/04/09 04:28:14;;;;;;;28.77;9.95;;;;;;;-0.28;68.94;100943.48;1791834;80;21147;-75
2021/04/09 04:30:41;;;;;;;26.68;10.90;;;;;;;-0.25;68.96;100949.39;1791740;80;21139;-75
2021/04/09 04:33:07;;;;;;;21.90;10.18;;;;;;;-0.20;68.97;100946.48;1791631;80;22058;-74
2021/04/09 04:35:34;;;;;;;26.10;10.98;;;;;;;-0.14;68.99;100946.15;1791718;80;21148;-74
2021/04/09 04:38:00;;;;;;;20.30;10.05;;;;;;;-0.08;69.00;100948.41;1791860;80;21159;-75
2021/04/09 04:40:27;;;;;;;21.80;9.70;;;;;;;0.07;69.05;100940.94;1785891;80;21559;-74
2021/04/09 04:42:53;;;;;;;35.05;11.50;;;;;;;0.52;69.16;100937.84;1760336;81;21181;-74
2021/04/09 04:45:20;;;;;;;23.10;11.28;;;;;;;1.05;69.09;100950.29;1760486;81;21208;-74
2021/04/09 04:47:46;;;;;;;23.02;10.43;;;;;;;1.55;69.00;100945.77;1760262;81;21172;-74
2021/04/09 04:50:13;;;;;;;25.02;11.00;;;;;;;2.11;68.90;100944.16;1760358;81;21171;-75
2021/04/09 04:52:40;;;;;;;18.35;7.87;;;;;;;2.68;68.70;100939.36;1761986;81;21176;-75
2021/04/09 04:55:07;;;;;;;26.07;10.28;;;;;;;3.26;68.39;100938.73;1766081;81;21395;-75
2021/04/09 04:57:34;;;;;;;20.62;10.23;;;;;;;3.61;68.08;100941.92;1766201;81;21262;-75
2021/04/09 05:00:00;;;;;;;23.22;10.95;;;;;;;4.09;67.72;100942.72;1766125;80;21167;-75
2021/04/09 05:02:27;;;;;;;25.12;9.40;;;;;;;4.39;67.30;100937.30;1704955;84;21183;-75
2021/04/09 05:04:53;;;;;;;21.90;8.70;;;;;;;4.70;66.85;100942.84;1741054;81;21124;-75
2021/04/09 05:07:19;;;;;;;19.60;8.28;;;;;;;5.13;66.43;100942.97;1764596;81;21199;-75
2021/04/09 05:09:46;;;;;;;23.77;9.45;;;;;;;5.51;66.21;100938.94;1764371;81;21273;-75
2021/04/09 05:12:12;;;;;;;20.52;10.43;;;;;;;5.80;65.71;100938.36;1764501;81;21163;-75
2021/04/09 05:14:38;;;;;;;17.20;8.48;;;;;;;5.88;65.07;100934.61;1783667;80;21164;-75
2021/04/09 05:17:05;;;;;;;19.17;8.78;;;;;;;5.81;64.49;100934.73;1734124;82;21669;-76
2021/04/09 05:19:31;;;;;;;14.83;7.12;;;;;;;5.68;64.02;100939.35;1755745;81;21195;-75
2021/04/09 05:21:57;;;;;;;17.15;7.80;;;;;;;6.06;63.55;100940.19;1752547;81;22108;-75
2021/04/09 05:24:24;;;;;;;17.20;7.67;;;;;;;6.46;62.71;100938.53;1703389;84;21212;-75
2021/04/09 05:26:50;;;;;;;16.40;8.00;;;;;;;6.07;61.74;100932.13;1752696;81;21668;-75
2021/04/09 05:29:16;;;;;;;19.92;9.98;;;;;;;5.46;61.50;100930.52;1733993;82;21185;-75
2021/04/09 05:31:43;;;;;;;28.10;13.13;;;;;;;5.18;61.64;100920.48;1734309;81;21135;-75
2021/04/09 05:34:09;;;;;;;36.33;13.83;;;;;;;4.93;61.68;100924.70;1734097;81;21596;-75
2021/04/09 05:36:35;;;;;;;25.85;9.98;;;;;;;4.77;61.74;100926.88;1734274;82;21616;-75
2021/04/09 05:39:01;;;;;;;21.05;8.80;;;;;;;4.55;61.72;100926.38;1733931;82;21140;-75
2021/04/09 05:41:28;;;;;;;22.07;9.00;;;;;;;4.46;61.58;100925.30;1734037;82;21208;-75
2021/04/09 05:43:54;;;;;;;30.50;10.75;;;;;;;4.55;61.39;100927.70;1734006;82;21196;-75
2021/04/09 05:46:21;;;;;;;59.48;19.27;;;;;;;4.68;61.27;100922.33;1734130;82;22031;-76
2021/04/09 05:48:47;;;;;;;82.37;24.47;;;;;;;4.73;61.08;100917.03;1734616;81;21179;-77
2021/04/09 05:51:13;;;;;;;72.08;26.77;;;;;;;4.85;60.96;100916.08;1734028;82;21636;-77
2021/04/09 05:53:40;;;;;;;17.57;7.70;;;;;;;4.92;60.82;100913.80;1745334;81;21167;-77
2021/04/09 05:56:06;;;;;;;25.35;13.43;;;;;;;4.86;60.58;100903.69;1782592;80;21120;-77
2021/04/09 05:58:33;;;;;;;22.62;12.07;;;;;;;4.85;60.41;100907.31;1771898;80;22348;-77
2021/04/09 06:00:59;;;;;;;16.30;8.25;;;;;;;4.97;60.25;100915.09;1765262;80;21152;-77
2021/04/09 06:03:26;;;;;;;19.50;8.40;;;;;;;4.97;60.00;100912.93;1775828;78;21187;-77
2021/04/09 06:05:52;;;;;;;20.45;9.28;;;;;;;4.93;59.73;100903.56;1792802;78;21144;-77
2021/04/09 06:08:18;;;;;;;21.85;9.63;;;;;;;4.97;59.55;100902.36;1784721;79;21581;-77
2021/04/09 06:10:44;;;;;;;22.05;9.10;;;;;;;5.02;59.32;100909.45;1785212;80;22107;-78
2021/04/09 06:13:11;;;;;;;21.90;8.73;;;;;;;5.13;59.16;100898.88;1787529;80;21164;-76
2021/04/09 06:15:37;;;;;;;19.27;7.75;;;;;;;5.18;58.92;100901.97;1787710;80;21152;-76
2021/04/09 06:18:05;;;;;;;16.07;8.10;;;;;;;5.21;58.69;100900.39;1787148;80;21616;-76
2021/04/09 06:20:32;;;;;;;14.60;7.65;;;;;;;5.20;58.57;100897.89;1760189;80;21208;-78
2021/04/09 06:22:58;;;;;;;18.20;8.33;;;;;;;5.28;58.34;100889.69;1756532;80;21604;-76
2021/04/09 06:25:25;;;;;;;20.85;8.70;;;;;;;5.41;58.27;100893.52;1758278;80;21585;-76
2021/04/09 06:27:52;;;;;;;13.93;7.15;;;;;;;5.47;58.08;100893.85;1766419;80;21175;-76
2021/04/09 06:30:19;;;;;;;19.95;8.80;;;;;;;5.57;57.91;100881.18;1777039;79;21147;-75
2021/04/09 06:32:46;;;;;;;13.28;7.60;;;;;;;5.66;57.75;100876.48;1768613;80;21128;-77
2021/04/09 06:35:13;;;;;;;15.45;7.55;;;;;;;5.62;57.60;100880.34;1773949;78;21216;-76
2021/04/09 06:37:41;;;;;;;13.55;7.22;;;;;;;5.78;57.48;100875.44;1770687;80;21503;-76
2021/04/09 06:40:10;;;;;;;15.83;8.20;;;;;;;5.86;57.22;100874.36;1732151;81;21172;-76
2021/04/09 06:42:37;;;;;;;17.23;7.65;;;;;;;5.92;57.10;100881.78;1761373;80;21168;-76
2021/04/09 06:45:05;;;;;;;16.65;8.30;;;;;;;5.95;56.90;100877.55;1763917;80;21157;-76
2021/04/09 06:47:33;;;;;;;17.73;8.15;;;;;;;6.12;56.87;100877.00;1771729;80;21658;-77
2021/04/09 06:49:59;;;;;;;65.50;27.30;;;;;;;6.23;56.72;100864.14;1767944;80;21199;-77
2021/04/09 06:52:27;;;;;;;17.45;8.68;;;;;;;6.31;56.54;100870.95;1773998;80;21155;-77
2021/04/09 06:54:54;;;;;;;14.80;7.30;;;;;;;6.40;56.42;100871.00;1744602;78;21219;-77
2021/04/09 06:57:20;;;;;;;91.20;44.70;;;;;;;6.52;56.22;100871.28;1800509;78;21160;-77
2021/04/09 06:59:47;;;;;;;39.88;26.23;;;;;;;6.67;56.03;100866.95;1773179;79;21241;-77
2021/04/09 07:02:16;;;;;;;17.02;7.55;;;;;;;6.78;55.84;100862.88;1767737;79;21204;-76
2021/04/09 07:04:46;;;;;;;16.90;7.62;;;;;;;6.83;55.50;100863.30;1758849;80;21191;-76
2021/04/09 07:07:14;;;;;;;20.23;7.42;;;;;;;6.93;55.28;100862.88;1772539;79;21203;-76
2021/04/09 07:09:41;;;;;;;15.78;6.53;;;;;;;6.93;54.90;100846.45;1773510;80;21523;-76
2021/04/09 07:12:20;;;;;;;13.75;7.83;;;;;;;6.93;54.63;100853.59;1784654;79;21752;-76
2021/04/09 07:14:48;;;;;;;17.25;7.72;;;;;;;7.07;54.47;100859.00;1745999;80;21165;-76
2021/04/09 07:17:37;;;;;;;12.35;6.75;;;;;;;7.24;54.38;100847.72;1761915;80;21227;-76
2021/04/09 07:20:23;;;;;;;14.83;7.87;;;;;;;7.44;54.23;100847.59;1768767;80;21549;-77
2021/04/09 07:22:54;;;;;;;15.95;7.17;;;;;;;7.51;53.98;100843.89;1766600;78;21166;-76
2021/04/09 07:25:25;;;;;;;28.38;13.08;;;;;;;7.67;53.75;100835.39;1764726;80;21231;-77
2021/04/09 07:28:14;;;;;;;22.22;14.00;;;;;;;7.73;53.55;100826.84;1755657;80;21188;-77
2021/04/09 07:30:42;;;;;;;11.50;6.67;;;;;;;7.76;53.33;100829.22;1755673;80;21231;-77
2021/04/09 07:33:10;;;;;;;13.83;6.78;;;;;;;7.69;52.78;100824.13;1730150;82;21735;-77
2021/04/09 07:35:46;;;;;;;15.90;8.18;;;;;;;7.76;52.54;100819.92;1743113;82;21161;-77
2021/04/09 07:38:31;;;;;;;14.75;6.53;;;;;;;7.98;52.49;100815.64;1755184;80;23273;-77
2021/04/09 07:41:09;;;;;;;14.07;5.92;;;;;;;8.12;52.30;100803.72;1786369;80;21194;-77
2021/04/09 07:46:24;;;;;;;14.38;7.35;;;;;;;8.43;51.89;100798.05;1851159;77;22697;-78
2021/04/09 07:49:03;;;;;;;17.35;6.35;;;;;;;8.57;51.70;100798.54;1787086;80;21163;-78
2021/04/09 07:51:30;;;;;;;21.25;9.35;;;;;;;8.72;51.50;100791.75;1754233;81;21196;-78
2021/04/09 07:54:08;;;;;;;21.05;8.08;;;;;;;8.72;51.17;100791.75;1786910;80;21183;-77
2021/04/09 07:56:49;;;;;;;13.98;5.75;;;;;;;8.73;50.68;100788.92;1754444;81;21158;-78
2021/04/09 07:59:40;;;;;;;11.75;6.70;;;;;;;8.82;50.16;100792.53;1785833;80;21128;-78
2021/04/09 08:02:08;;;;;;;14.10;6.92;;;;;;;9.06;49.79;100784.81;1773886;80;21569;-77
2021/04/09 08:04:40;;;;;;;25.95;12.63;;;;;;;9.09;49.38;100784.51;1745227;80;21274;-78
2021/04/09 08:07:06;;;;;;;16.75;8.45;;;;;;;9.10;49.00;100786.19;1782014;80;21608;-78
2021/04/09 08:09:48;;;;;;;14.78;7.10;;;;;;;9.20;48.66;100782.12;1756448;81;21110;-77
2021/04/09 08:12:31;;;;;;;10.10;6.47;;;;;;;9.25;48.31;100768.72;1767520;80;21723;-78
2021/04/09 08:15:18;;;;;;;12.13;6.42;;;;;;;9.37;48.00;100763.48;1768171;80;21135;-77
2021/04/09 08:18:05;;;;;;;9.90;6.17;;;;;;;9.38;47.53;100755.02;1774102;80;21193;-78
2021/04/09 08:20:36;;;;;;;13.05;7.03;;;;;;;9.46;47.20;100750.58;1749814;81;21178;-79
2021/04/09 08:23:12;;;;;;;18.27;9.40;;;;;;;9.59;46.99;100758.67;1752051;81;21615;-78
2021/04/09 08:25:39;;;;;;;16.05;9.15;;;;;;;9.76;46.92;100744.48;1747042;81;21593;-78
2021/04/09 08:28:07;;;;;;;7.55;5.72;;;;;;;9.90;46.95;100750.56;1746446;81;21184;-79
2021/04/09 08:30:35;;;;;;;19.90;8.80;;;;;;;10.07;47.00;100744.34;1741987;80;21255;-79
2021/04/09 08:33:02;;;;;;;10.10;6.53;;;;;;;10.01;46.70;100747.64;1745827;80;21184;-79
2021/04/09 08:35:28;;;;;;;23.45;11.28;;;;;;;10.00;46.36;100736.64;1747501;80;21143;-78
2021/04/09 08:37:55;;;;;;;26.48;10.45;;;;;;;9.96;46.24;100733.95;1749589;80;21175;-79
2021/04/09 08:40:22;;;;;;;13.08;7.08;;;;;;;10.11;46.35;100735.53;1743702;81;21149;-79
2021/04/09 08:42:48;;;;;;;16.02;9.38;;;;;;;10.43;46.50;100740.56;1747147;80;21201;-79
2021/04/09 08:45:15;;;;;;;11.97;7.53;;;;;;;10.53;46.42;100726.59;1749106;81;21206;-79
2021/04/09 08:47:44;;;;;;;12.60;7.65;;;;;;;10.66;46.29;100731.98;1723414;82;21157;-79
2021/04/09 08:50:13;;;;;;;11.78;6.45;;;;;;;10.68;46.05;100720.14;1727603;81;21755;-79
2021/04/09 08:52:44;;;;;;;11.97;6.30;;;;;;;10.76;46.01;100723.34;1724619;82;21596;-79
2021/04/09 08:55:12;;;;;;;13.95;6.95;;;;;;;10.77;45.48;100707.64;1730268;81;22072;-80
2021/04/09 08:57:44;;;;;;;12.30;6.35;;;;;;;10.64;44.85;100715.29;1720665;81;21232;-79
2021/04/09 09:00:20;;;;;;;14.93;7.42;;;;;;;10.57;44.34;100712.44;1753718;80;21196;-79
2021/04/09 09:02:52;;;;;;;14.45;8.03;;;;;;;10.41;44.19;100708.40;1736579;80;21611;-79
2021/04/09 09:05:27;;;;;;;14.80;8.43;;;;;;;10.32;44.09;100703.52;1748422;80;21121;-79
2021/04/09 09:08:00;;;;;;;17.12;7.20;;;;;;;10.33;44.05;100711.86;1731415;81;21142;-79
2021/04/09 09:10:36;;;;;;;12.68;7.40;;;;;;;10.44;43.71;100703.58;1700045;83;21203;-79
2021/04/09 09:13:15;;;;;;;16.07;7.92;;;;;;;10.53;43.46;100697.75;1745469;80;21156;-80
2021/04/09 09:15:53;;;;;;;20.20;7.83;;;;;;;10.69;43.47;100692.98;1738738;81;21216;-80
2021/04/09 09:18:28;;;;;;;11.48;8.03;;;;;;;10.67;43.40;100699.80;1755264;80;21152;-80
2021/04/09 09:21:14;;;;;;;14.60;7.45;;;;;;;10.78;43.35;100687.98;1760689;81;21563;-80
2021/04/09 09:24:01;;;;;;;9.30;6.50;;;;;;;10.83;43.28;100680.33;1730626;82;21170;-80
2021/04/09 09:26:39;;;;;;;11.55;7.20;;;;;;;10.79;42.93;100683.83;1700876;84;21154;-79
2021/04/09 09:29:17;;;;;;;14.80;6.78;;;;;;;10.84;42.73;100669.48;1731850;81;21683;-79
2021/04/09 09:31:57;;;;;;;12.60;6.78;;;;;;;10.90;42.61;100657.33;1749372;81;21647;-79
2021/04/09 09:34:32;;;;;;;12.82;5.95;;;;;;;11.04;42.56;100651.33;1744632;81;21208;-82
2021/04/09 09:37:14;;;;;;;16.65;7.87;;;;;;;11.20;42.17;100651.31;1726837;81;21651;-77
2021/04/09 09:40:01;;;;;;;53.23;11.73;;;;;;;11.33;42.05;100655.64;1727762;83;22094;-78
2021/04/09 09:42:36;;;;;;;12.65;7.10;;;;;;;11.33;41.49;100656.97;1719117;82;21601;-79
2021/04/09 09:45:11;;;;;;;16.12;7.25;;;;;;;11.09;41.50;100640.97;1708371;83;21128;-79
2021/04/09 09:47:41;;;;;;;16.15;8.15;;;;;;;11.00;41.71;100648.66;1722129;83;21212;-79
2021/04/09 09:50:20;;;;;;;11.73;7.33;;;;;;;11.05;41.66;100638.83;1722700;83;21181;-76
2021/04/09 09:53:02;;;;;;;16.12;7.20;;;;;;;11.11;41.63;100628.31;1720783;83;21614;-79
2021/04/09 09:58:26;;;;;;;18.57;6.83;;;;;;;11.28;41.21;100633.97;1814164;77;22711;-78
2021/04/09 10:01:02;;;;;;;12.00;7.50;;;;;;;11.37;41.32;100638.28;1734776;80;21175;-79
2021/04/09 10:03:32;;;;;;;14.47;8.73;;;;;;;11.49;41.37;100616.91;1759349;80;21262;-80
2021/04/09 10:06:08;;;;;;;15.08;7.67;;;;;;;11.37;41.22;100623.59;1774643;78;21159;-80
2021/04/09 10:08:35;;;;;;;14.50;7.17;;;;;;;11.54;41.17;100629.23;1778064;80;21032;-80
2021/04/09 10:11:08;;;;;;;13.38;8.00;;;;;;;11.72;40.89;100625.05;1773567;79;21162;-80
2021/04/09 10:13:37;;;;;;;14.30;7.50;;;;;;;11.80;40.78;100617.02;1778841;80;21185;-79
2021/04/09 10:16:10;;;;;;;15.13;8.75;;;;;;;11.90;40.68;100615.46;1778776;80;21174;-80
2021/04/09 10:18:39;;;;;;;13.45;7.10;;;;;;;12.05;40.71;100621.75;1767811;79;21222;-80
2021/04/09 10:21:23;;;;;;;13.45;6.75;;;;;;;12.20;40.67;100621.36;1743687;81;21166;-80
2021/04/09 10:24:12;;;;;;;21.87;9.40;;;;;;;12.19;40.43;100608.98;1743498;81;21614;-78
2021/04/09 10:26:46;;;;;;;10.20;6.55;;;;;;;12.10;40.34;100618.07;1751382;81;21156;-78
2021/04/09 10:29:34;;;;;;;17.17;8.55;;;;;;;11.94;40.09;100614.12;1743708;80;21215;-78
2021/04/09 10:32:04;;;;;;;17.82;8.95;;;;;;;12.01;40.18;100609.74;1754567;80;21235;-78
2021/04/09 10:34:33;;;;;;;11.60;6.97;;;;;;;12.20;39.94;100609.33;1737856;80;21776;-81
2021/04/09 10:37:00;;;;;;;11.00;6.50;;;;;;;12.10;39.75;100607.38;1734314;81;21630;-81
2021/04/09 10:39:27;;;;;;;17.52;7.83;;;;;;;11.96;39.81;100614.80;1749281;81;21172;-81
2021/04/09 10:41:56;;;;;;;10.00;6.95;;;;;;;12.13;40.04;100603.02;1743468;81;22076;-81
2021/04/09 10:44:29;;;;;;;16.60;9.28;;;;;;;12.29;39.92;100600.23;1745676;80;21199;-80
2021/04/09 10:47:03;;;;;;;16.93;9.28;;;;;;;12.44;40.07;100601.66;1756250;80;21189;-81
2021/04/09 10:49:33;;;;;;;25.25;13.00;;;;;;;12.47;40.08;100595.45;1782804;80;21196;-81
2021/04/09 10:52:13;;;;;;;15.75;8.53;;;;;;;12.41;39.94;100593.50;1787873;80;21143;-79
2021/04/09 10:54:42;;;;;;;16.57;10.10;;;;;;;12.47;40.05;100591.44;1788114;80;21196;-79
2021/04/09 10:57:11;;;;;;;;;;;;;;;12.77;40.34;100592.38;1791564;80;21191;-79
2021/04/09 10:59:42;;;;;;;14.90;8.53;;;;;;;13.01;40.27;100591.37;1790308;80;20266;-78
2021/04/09 11:02:12;;;;;;;32.15;16.20;;;;;;;12.86;40.07;100579.77;1790911;80;21200;-79
2021/04/09 11:04:38;;;;;;;14.53;8.63;;;;;;;12.61;39.77;100586.33;1787235;80;21203;-81
2021/04/09 11:07:08;;;;;;;20.57;9.48;;;;;;;12.38;39.61;100572.45;1790795;80;21196;-81
2021/04/09 11:09:47;;;;;;;11.93;6.58;;;;;;;12.34;39.65;100575.16;1790041;80;21172;-81
2021/04/09 11:12:27;;;;;;;45.10;19.80;;;;;;;12.25;39.51;100574.86;1790275;80;21286;-81
2021/04/09 11:15:15;;;;;;;27.98;12.60;;;;;;;12.19;39.57;100571.56;1790252;80;21592;-81
2021/04/09 11:17:54;;;;;;;32.30;15.23;;;;;;;12.04;39.40;100567.95;1789334;80;21154;-81
2021/04/09 11:20:29;;;;;;;20.08;11.73;;;;;;;12.01;39.38;100570.98;1786941;80;21257;-81
2021/04/09 11:23:10;;;;;;;18.12;11.05;;;;;;;12.25;39.47;100562.83;1790123;80;21600;-81
2021/04/09 11:25:44;;;;;;;12.58;5.90;;;;;;;12.37;39.45;100557.91;1790123;80;21163;-81
2021/04/09 11:28:23;;;;;;;10.68;6.12;;;;;;;12.50;39.52;100556.30;1790221;80;21675;-81
2021/04/09 11:31:05;;;;;;;12.60;6.12;;;;;;;12.63;39.56;100557.56;1790124;80;21730;-81
2021/04/09 11:33:39;;;;;;;10.35;5.78;;;;;;;12.33;39.13;100560.11;1790348;80;22286;-78
2021/04/09 11:36:20;;;;;;;11.75;6.30;;;;;;;12.12;39.05;100565.25;1761749;80;21624;-78
2021/04/09 11:38:47;;;;;;;14.85;5.12;;;;;;;12.05;39.12;100557.60;1773287;80;21112;-78
2021/04/09 11:41:31;;;;;;;12.82;6.03;;;;;;;12.05;39.10;100545.57;1724022;81;21138;-78